sensor_id;sensor_type;location;lat;lon;timestamp;P1;P2;P0
72031;PMS5003;49185;42.320;23.198;2023-01-26T00:02:21;5.25;5.00;2.00
72031;PMS5003;49185;42.320;23.198;2023-01-26T00:04:46;6.00;5.00;0.33
72031;PMS5003;49185;42.320;23.198;2023-01-26T00:07:11;6.33;5.67;0.00
72031;PMS5003;49185;42.320;23.198;2023-01-26T00:09:37;5.33;4.33;0.00
72031;PMS5003;49185;42.320;23.198;2023-01-26T00:12:02;4.00;3.00;0.00
72031;PMS5003;49185;42.320;23.198;2023-01-26T00:14:28;5.00;3.67;1.00
72031;PMS5003;49185;42.320;23.198;2023-01-26T00:16:53;6.00;6.00;1.00
72031;PMS5003;49185;42.320;23.198;2023-01-26T00:19:19;5.67;5.33;2.00
72031;PMS5003;49185;42.320;23.198;2023-01-26T00:21:44;6.00;4.33;2.00
72031;PMS5003;49185;42.320;23.198;2023-01-26T00:24:09;5.00;3.33;1.00
72031;PMS5003;49185;42.320;23.198;2023-01-26T00:26:35;5.00;5.00;1.00
72031;PMS5003;49185;42.320;23.198;2023-01-26T00:29:00;3.67;3.67;0.00
72031;PMS5003;49185;42.320;23.198;2023-01-26T00:31:26;6.00;5.67;2.00
72031;PMS5003;49185;42.320;23.198;2023-01-26T00:33:53;6.00;4.75;1.00
72031;PMS5003;49185;42.320;23.198;2023-01-26T00:36:19;7.75;6.00;2.00
72031;PMS5003;49185;42.320;23.198;2023-01-26T00:38:45;6.75;4.00;2.00
72031;PMS5003;49185;42.320;23.198;2023-01-26T00:41:10;5.00;4.00;1.00
72031;PMS5003;49185;42.320;23.198;2023-01-26T00:43:36;6.00;5.33;1.00
72031;PMS5003;49185;42.320;23.198;2023-01-26T00:46:01;6.00;6.00;1.00
72031;PMS5003;49185;42.320;23.198;2023-01-26T00:48:27;6.00;5.67;1.00
72031;PMS5003;49185;42.320;23.198;2023-01-26T00:50:52;5.00;4.00;0.00
72031;PMS5003;49185;42.320;23.198;2023-01-26T00:53:18;5.00;5.00;0.00
72031;PMS5003;49185;42.320;23.198;2023-01-26T00:55:43;4.00;4.00;0.00
72031;PMS5003;49185;42.320;23.198;2023-01-26T00:58:09;5.00;4.33;0.00
72031;PMS5003;49185;42.320;23.198;2023-01-26T01:00:35;6.00;6.00;2.75
72031;PMS5003;49185;42.320;23.198;2023-01-26T01:03:02;6.00;4.25;1.00
72031;PMS5003;49185;42.320;23.198;2023-01-26T01:05:29;5.25;5.25;0.50
72031;PMS5003;49185;42.320;23.198;2023-01-26T01:07:56;6.00;6.00;3.00
72031;PMS5003;49185;42.320;23.198;2023-01-26T01:10:22;5.00;4.00;2.50
72031;PMS5003;49185;42.320;23.198;2023-01-26T01:12:48;5.25;4.25;2.00
72031;PMS5003;49185;42.320;23.198;2023-01-26T01:15:14;6.00;6.00;1.00
72031;PMS5003;49185;42.320;23.198;2023-01-26T01:17:40;6.33;5.33;1.00
72031;PMS5003;49185;42.320;23.198;2023-01-26T01:20:07;7.00;4.50;1.00
72031;PMS5003;49185;42.320;23.198;2023-01-26T01:22:34;5.00;4.75;2.00
72031;PMS5003;49185;42.320;23.198;2023-01-26T01:25:00;6.00;5.00;2.00
72031;PMS5003;49185;42.320;23.198;2023-01-26T01:27:25;6.00;5.00;1.00
72031;PMS5003;49185;42.320;23.198;2023-01-26T01:29:51;4.00;4.00;2.00
72031;PMS5003;49185;42.320;23.198;2023-01-26T01:32:17;6.00;6.00;2.00
72031;PMS5003;49185;42.320;23.198;2023-01-26T01:34:47;6.00;6.00;3.00
72031;PMS5003;49185;42.320;23.198;2023-01-26T01:37:13;8.00;6.75;3.00
72031;PMS5003;49185;42.320;23.198;2023-01-26T01:39:39;7.00;6.00;3.00
72031;PMS5003;49185;42.320;23.198;2023-01-26T01:42:04;6.33;6.00;2.00
72031;PMS5003;49185;42.320;23.198;2023-01-26T01:44:30;5.50;4.50;1.75
72031;PMS5003;49185;42.320;23.198;2023-01-26T01:49:25;6.00;4.67;0.00
72031;PMS5003;49185;42.320;23.198;2023-01-26T01:51:56;6.00;5.00;1.00
72031;PMS5003;49185;42.320;23.198;2023-01-26T01:54:38;6.00;5.25;1.00
72031;PMS5003;49185;42.320;23.198;2023-01-26T01:57:26;6.25;6.00;1.75
72031;PMS5003;49185;42.320;23.198;2023-01-26T02:00:01;6.00;5.00;3.00
72031;PMS5003;49185;42.320;23.198;2023-01-26T02:02:31;5.25;5.00;2.75
72031;PMS5003;49185;42.320;23.198;2023-01-26T02:04:57;4.00;4.00;1.00
72031;PMS5003;49185;42.320;23.198;2023-01-26T02:07:28;4.50;4.25;1.00
72031;PMS5003;49185;42.320;23.198;2023-01-26T02:09:56;4.00;4.00;0.00
72031;PMS5003;49185;42.320;23.198;2023-01-26T02:12:25;3.00;3.00;0.50
72031;PMS5003;49185;42.320;23.198;2023-01-26T02:14:54;3.50;3.00;0.00
72031;PMS5003;49185;42.320;23.198;2023-01-26T02:17:21;5.00;3.00;0.00
72031;PMS5003;49185;42.320;23.198;2023-01-26T02:27:42;4.00;3.00;1.00
72031;PMS5003;49185;42.320;23.198;2023-01-26T02:30:08;4.00;3.00;0.00
72031;PMS5003;49185;42.320;23.198;2023-01-26T02:32:37;3.00;3.00;0.00
72031;PMS5003;49185;42.320;23.198;2023-01-26T02:35:02;4.00;3.00;0.00
72031;PMS5003;49185;42.320;23.198;2023-01-26T02:37:28;3.00;3.00;0.00
72031;PMS5003;49185;42.320;23.198;2023-01-26T02:40:01;4.00;3.00;0.00
72031;PMS5003;49185;42.320;23.198;2023-01-26T02:42:33;5.50;3.00;0.00
72031;PMS5003;49185;42.320;23.198;2023-01-26T02:44:58;4.67;4.67;0.00
72031;PMS5003;49185;42.320;23.198;2023-01-26T02:47:24;3.00;3.00;0.00
72031;PMS5003;49185;42.320;23.198;2023-01-26T02:49:49;3.00;3.00;0.00
72031;PMS5003;49185;42.320;23.198;2023-01-26T02:52:15;3.00;3.00;0.00
72031;PMS5003;49185;42.320;23.198;2023-01-26T02:54:43;2.00;2.00;0.00
72031;PMS5003;49185;42.320;23.198;2023-01-26T02:57:08;4.00;3.00;0.00
72031;PMS5003;49185;42.320;23.198;2023-01-26T02:59:34;3.75;3.00;0.00
72031;PMS5003;49185;42.320;23.198;2023-01-26T03:02:00;3.00;3.00;0.00
72031;PMS5003;49185;42.320;23.198;2023-01-26T03:04:25;5.00;3.00;0.00
72031;PMS5003;49185;42.320;23.198;2023-01-26T03:06:51;3.00;3.00;0.00
72031;PMS5003;49185;42.320;23.198;2023-01-26T03:09:17;3.00;3.00;0.00
72031;PMS5003;49185;42.320;23.198;2023-01-26T03:11:42;4.00;2.33;0.00
72031;PMS5003;49185;42.320;23.198;2023-01-26T03:14:11;2.33;2.00;0.00
72031;PMS5003;49185;42.320;23.198;2023-01-26T03:16:38;0.00;0.00;0.00
72031;PMS5003;49185;42.320;23.198;2023-01-26T03:19:05;2.25;2.00;0.00
72031;PMS5003;49185;42.320;23.198;2023-01-26T03:21:30;3.00;3.00;0.00
72031;PMS5003;49185;42.320;23.198;2023-01-26T03:23:56;3.00;2.00;0.00
72031;PMS5003;49185;42.320;23.198;2023-01-26T03:26:21;1.67;1.67;0.00
72031;PMS5003;49185;42.320;23.198;2023-01-26T03:28:47;1.00;1.00;0.00
72031;PMS5003;49185;42.320;23.198;2023-01-26T03:31:12;3.00;2.00;0.00
72031;PMS5003;49185;42.320;23.198;2023-01-26T03:33:38;2.00;2.00;0.00
72031;PMS5003;49185;42.320;23.198;2023-01-26T03:36:03;3.00;3.00;0.00
72031;PMS5003;49185;42.320;23.198;2023-01-26T03:38:29;3.00;2.25;0.00
72031;PMS5003;49185;42.320;23.198;2023-01-26T03:40:57;2.33;2.33;0.00
72031;PMS5003;49185;42.320;23.198;2023-01-26T03:43:23;1.25;1.00;0.00
72031;PMS5003;49185;42.320;23.198;2023-01-26T03:45:48;1.00;1.00;0.00
72031;PMS5003;49185;42.320;23.198;2023-01-26T03:48:14;2.00;2.00;0.00
72031;PMS5003;49185;42.320;23.198;2023-01-26T03:50:39;2.00;2.00;0.00
72031;PMS5003;49185;42.320;23.198;2023-01-26T03:53:11;1.00;0.00;0.00
72031;PMS5003;49185;42.320;23.198;2023-01-26T03:55:37;1.00;1.00;0.00
72031;PMS5003;49185;42.320;23.198;2023-01-26T03:58:03;3.00;2.00;0.00
72031;PMS5003;49185;42.320;23.198;2023-01-26T04:00:28;2.00;1.00;0.00
72031;PMS5003;49185;42.320;23.198;2023-01-26T04:02:54;4.00;4.00;0.00
72031;PMS5003;49185;42.320;23.198;2023-01-26T04:05:19;1.00;1.00;0.00
72031;PMS5003;49185;42.320;23.198;2023-01-26T04:07:45;2.33;2.33;0.00
72031;PMS5003;49185;42.320;23.198;2023-01-26T04:10:10;4.00;3.00;1.00
72031;PMS5003;49185;42.320;23.198;2023-01-26T04:12:35;5.00;4.00;1.00
72031;PMS5003;49185;42.320;23.198;2023-01-26T04:15:01;3.00;2.00;1.00
72031;PMS5003;49185;42.320;23.198;2023-01-26T04:17:26;3.00;3.00;1.00
72031;PMS5003;49185;42.320;23.198;2023-01-26T04:19:52;3.00;3.00;0.00
72031;PMS5003;49185;42.320;23.198;2023-01-26T04:22:17;4.00;2.00;0.00
72031;PMS5003;49185;42.320;23.198;2023-01-26T04:24:43;3.00;2.00;0.00
72031;PMS5003;49185;42.320;23.198;2023-01-26T04:27:08;2.00;2.00;0.00
72031;PMS5003;49185;42.320;23.198;2023-01-26T04:29:33;3.00;3.00;0.00
72031;PMS5003;49185;42.320;23.198;2023-01-26T04:31:59;2.67;1.67;0.00
72031;PMS5003;49185;42.320;23.198;2023-01-26T04:34:24;2.00;2.00;0.00
72031;PMS5003;49185;42.320;23.198;2023-01-26T04:36:50;3.00;3.00;0.00
72031;PMS5003;49185;42.320;23.198;2023-01-26T04:39:15;1.67;1.67;0.00
72031;PMS5003;49185;42.320;23.198;2023-01-26T04:41:40;1.33;1.33;0.00
72031;PMS5003;49185;42.320;23.198;2023-01-26T04:44:06;1.00;1.00;0.00
72031;PMS5003;49185;42.320;23.198;2023-01-26T04:46:31;1.00;1.00;0.00
72031;PMS5003;49185;42.320;23.198;2023-01-26T04:48:57;2.00;2.00;0.00
72031;PMS5003;49185;42.320;23.198;2023-01-26T04:51:22;2.00;2.00;0.00
72031;PMS5003;49185;42.320;23.198;2023-01-26T04:53:48;0.00;0.00;0.00
72031;PMS5003;49185;42.320;23.198;2023-01-26T04:56:28;2.25;1.00;0.00
72031;PMS5003;49185;42.320;23.198;2023-01-26T04:58:55;1.00;1.00;0.00
72031;PMS5003;49185;42.320;23.198;2023-01-26T05:01:23;1.50;1.50;0.00
72031;PMS5003;49185;42.320;23.198;2023-01-26T05:03:48;3.00;3.00;0.00
72031;PMS5003;49185;42.320;23.198;2023-01-26T05:06:14;2.00;2.00;1.00
72031;PMS5003;49185;42.320;23.198;2023-01-26T05:08:40;1.50;1.25;0.00
72031;PMS5003;49185;42.320;23.198;2023-01-26T05:11:06;2.00;2.00;0.00
72031;PMS5003;49185;42.320;23.198;2023-01-26T05:13:32;3.00;1.33;0.00
72031;PMS5003;49185;42.320;23.198;2023-01-26T05:15:58;2.00;1.00;0.00
72031;PMS5003;49185;42.320;23.198;2023-01-26T05:18:23;4.33;3.00;0.00
72031;PMS5003;49185;42.320;23.198;2023-01-26T05:20:48;3.00;2.00;0.00
72031;PMS5003;49185;42.320;23.198;2023-01-26T05:23:14;6.00;5.00;0.00
72031;PMS5003;49185;42.320;23.198;2023-01-26T05:25:39;4.00;4.00;0.00
72031;PMS5003;49185;42.320;23.198;2023-01-26T05:28:05;8.00;6.00;1.33
72031;PMS5003;49185;42.320;23.198;2023-01-26T05:30:30;6.00;5.00;1.00
72031;PMS5003;49185;42.320;23.198;2023-01-26T05:33:06;5.00;5.00;1.00
72031;PMS5003;49185;42.320;23.198;2023-01-26T05:35:32;4.00;3.50;0.00
72031;PMS5003;49185;42.320;23.198;2023-01-26T05:37:58;3.00;3.00;0.00
72031;PMS5003;49185;42.320;23.198;2023-01-26T05:40:23;3.00;3.00;0.00
72031;PMS5003;49185;42.320;23.198;2023-01-26T05:42:49;4.00;2.33;0.00
72031;PMS5003;49185;42.320;23.198;2023-01-26T05:45:14;3.00;3.00;0.00
72031;PMS5003;49185;42.320;23.198;2023-01-26T05:47:41;2.00;0.75;0.00
72031;PMS5003;49185;42.320;23.198;2023-01-26T05:50:07;3.00;1.00;0.00
72031;PMS5003;49185;42.320;23.198;2023-01-26T05:52:33;2.75;2.25;0.00
72031;PMS5003;49185;42.320;23.198;2023-01-26T05:54:58;3.00;3.00;0.00
72031;PMS5003;49185;42.320;23.198;2023-01-26T05:57:24;3.00;3.00;0.00
72031;PMS5003;49185;42.320;23.198;2023-01-26T05:59:49;3.00;3.00;0.00
72031;PMS5003;49185;42.320;23.198;2023-01-26T06:02:15;3.33;3.00;0.00
72031;PMS5003;49185;42.320;23.198;2023-01-26T06:04:40;3.67;3.00;0.00
72031;PMS5003;49185;42.320;23.198;2023-01-26T06:07:05;4.00;3.00;0.00
72031;PMS5003;49185;42.320;23.198;2023-01-26T06:09:31;3.00;3.00;0.00
72031;PMS5003;49185;42.320;23.198;2023-01-26T06:11:56;3.00;3.00;0.00
72031;PMS5003;49185;42.320;23.198;2023-01-26T06:14:22;3.67;3.33;0.00
72031;PMS5003;49185;42.320;23.198;2023-01-26T06:16:47;7.00;6.00;0.00
72031;PMS5003;49185;42.320;23.198;2023-01-26T06:19:13;8.25;6.00;1.00
72031;PMS5003;49185;42.320;23.198;2023-01-26T06:21:39;6.00;4.00;1.67
72031;PMS5003;49185;42.320;23.198;2023-01-26T06:24:04;6.33;6.00;2.00
72031;PMS5003;49185;42.320;23.198;2023-01-26T06:26:30;5.25;4.25;0.00
72031;PMS5003;49185;42.320;23.198;2023-01-26T06:28:55;3.00;2.00;1.00
72031;PMS5003;49185;42.320;23.198;2023-01-26T06:31:21;3.00;2.67;1.00
72031;PMS5003;49185;42.320;23.198;2023-01-26T06:33:46;3.00;2.67;0.00
72031;PMS5003;49185;42.320;23.198;2023-01-26T06:36:13;3.00;3.00;0.00
72031;PMS5003;49185;42.320;23.198;2023-01-26T06:38:43;6.00;5.00;0.00
72031;PMS5003;49185;42.320;23.198;2023-01-26T06:41:10;6.00;6.00;2.00
72031;PMS5003;49185;42.320;23.198;2023-01-26T06:43:35;4.00;4.00;2.00
72031;PMS5003;49185;42.320;23.198;2023-01-26T06:46:02;5.00;5.00;2.00
72031;PMS5003;49185;42.320;23.198;2023-01-26T06:48:28;5.50;5.00;2.00
72031;PMS5003;49185;42.320;23.198;2023-01-26T06:50:56;6.00;4.25;1.25
72031;PMS5003;49185;42.320;23.198;2023-01-26T06:53:37;4.75;3.50;2.00
72031;PMS5003;49185;42.320;23.198;2023-01-26T06:56:06;3.00;3.00;1.00
72031;PMS5003;49185;42.320;23.198;2023-01-26T06:58:32;4.00;3.33;1.00
72031;PMS5003;49185;42.320;23.198;2023-01-26T07:00:57;3.00;3.00;1.00
72031;PMS5003;49185;42.320;23.198;2023-01-26T07:03:24;3.00;3.00;0.00
72031;PMS5003;49185;42.320;23.198;2023-01-26T07:05:50;4.00;3.00;1.00
72031;PMS5003;49185;42.320;23.198;2023-01-26T07:08:16;5.50;3.50;1.00
72031;PMS5003;49185;42.320;23.198;2023-01-26T07:10:41;6.00;4.67;2.00
72031;PMS5003;49185;42.320;23.198;2023-01-26T07:13:06;4.00;3.00;0.00
72031;PMS5003;49185;42.320;23.198;2023-01-26T07:15:32;4.33;3.67;0.00
72031;PMS5003;49185;42.320;23.198;2023-01-26T07:17:58;5.00;5.00;1.00
72031;PMS5003;49185;42.320;23.198;2023-01-26T07:20:24;3.00;3.00;1.00
72031;PMS5003;49185;42.320;23.198;2023-01-26T07:22:50;4.00;4.00;1.00
72031;PMS5003;49185;42.320;23.198;2023-01-26T07:25:16;4.25;4.25;1.00
72031;PMS5003;49185;42.320;23.198;2023-01-26T07:27:42;4.00;4.00;2.00
72031;PMS5003;49185;42.320;23.198;2023-01-26T07:30:08;3.00;3.00;1.00
72031;PMS5003;49185;42.320;23.198;2023-01-26T07:32:34;5.00;4.00;2.00
72031;PMS5003;49185;42.320;23.198;2023-01-26T07:35:02;7.00;5.00;2.75
72031;PMS5003;49185;42.320;23.198;2023-01-26T07:37:28;7.00;7.00;4.00
72031;PMS5003;49185;42.320;23.198;2023-01-26T07:39:54;5.25;4.50;2.00
72031;PMS5003;49185;42.320;23.198;2023-01-26T07:42:20;4.00;4.00;1.00
72031;PMS5003;49185;42.320;23.198;2023-01-26T07:44:45;6.67;6.33;2.33
72031;PMS5003;49185;42.320;23.198;2023-01-26T07:47:11;13.00;8.00;3.00
72031;PMS5003;49185;42.320;23.198;2023-01-26T07:49:36;9.67;7.00;3.00
72031;PMS5003;49185;42.320;23.198;2023-01-26T07:52:02;5.33;5.00;3.00
72031;PMS5003;49185;42.320;23.198;2023-01-26T07:54:28;5.00;4.00;1.00
72031;PMS5003;49185;42.320;23.198;2023-01-26T07:56:54;6.33;5.33;1.00
72031;PMS5003;49185;42.320;23.198;2023-01-26T07:59:20;9.00;6.33;1.67
72031;PMS5003;49185;42.320;23.198;2023-01-26T08:01:47;10.00;6.50;3.00
72031;PMS5003;49185;42.320;23.198;2023-01-26T08:04:13;9.00;6.25;3.00
72031;PMS5003;49185;42.320;23.198;2023-01-26T08:06:39;7.00;5.00;2.25
72031;PMS5003;49185;42.320;23.198;2023-01-26T08:09:05;6.33;5.00;1.33
72031;PMS5003;49185;42.320;23.198;2023-01-26T08:11:30;10.33;9.67;4.33
72031;PMS5003;49185;42.320;23.198;2023-01-26T08:13:56;8.00;7.00;3.00
72031;PMS5003;49185;42.320;23.198;2023-01-26T08:16:21;9.33;7.00;2.00
72031;PMS5003;49185;42.320;23.198;2023-01-26T08:18:47;8.00;6.33;3.00
72031;PMS5003;49185;42.320;23.198;2023-01-26T08:21:13;10.00;8.75;4.25
72031;PMS5003;49185;42.320;23.198;2023-01-26T08:23:40;11.50;8.00;3.00
72031;PMS5003;49185;42.320;23.198;2023-01-26T08:26:08;9.00;7.00;2.67
72031;PMS5003;49185;42.320;23.198;2023-01-26T08:28:35;11.25;8.00;3.00
72031;PMS5003;49185;42.320;23.198;2023-01-26T08:31:08;11.25;7.00;3.00
72031;PMS5003;49185;42.320;23.198;2023-01-26T08:33:36;12.00;9.50;4.00
72031;PMS5003;49185;42.320;23.198;2023-01-26T08:36:03;15.25;14.00;6.75
72031;PMS5003;49185;42.320;23.198;2023-01-26T08:38:30;14.00;13.25;5.75
72031;PMS5003;49185;42.320;23.198;2023-01-26T08:40:57;15.25;14.00;6.25
72031;PMS5003;49185;42.320;23.198;2023-01-26T08:43:24;13.50;13.00;5.00
72031;PMS5003;49185;42.320;23.198;2023-01-26T08:45:49;14.00;12.00;4.00
72031;PMS5003;49185;42.320;23.198;2023-01-26T08:48:15;14.00;14.00;3.00
72031;PMS5003;49185;42.320;23.198;2023-01-26T08:50:40;12.33;11.00;3.00
72031;PMS5003;49185;42.320;23.198;2023-01-26T08:53:06;12.00;10.33;3.00
72031;PMS5003;49185;42.320;23.198;2023-01-26T08:55:31;11.00;8.67;3.33
72031;PMS5003;49185;42.320;23.198;2023-01-26T08:57:58;12.25;8.25;4.00
72031;PMS5003;49185;42.320;23.198;2023-01-26T09:00:24;12.00;8.33;4.00
72031;PMS5003;49185;42.320;23.198;2023-01-26T09:02:50;12.00;10.00;4.00
72031;PMS5003;49185;42.320;23.198;2023-01-26T09:05:22;11.25;8.75;3.00
72031;PMS5003;49185;42.320;23.198;2023-01-26T09:07:47;13.00;10.33;3.67
72031;PMS5003;49185;42.320;23.198;2023-01-26T09:10:13;13.00;11.33;5.00
72031;PMS5003;49185;42.320;23.198;2023-01-26T09:12:38;13.67;11.33;5.00
72031;PMS5003;49185;42.320;23.198;2023-01-26T09:15:04;12.00;11.00;3.33
72031;PMS5003;49185;42.320;23.198;2023-01-26T09:17:30;12.00;9.00;3.50
72031;PMS5003;49185;42.320;23.198;2023-01-26T09:19:56;13.00;11.33;5.33
72031;PMS5003;49185;42.320;23.198;2023-01-26T09:22:21;10.67;8.00;5.00
72031;PMS5003;49185;42.320;23.198;2023-01-26T09:24:47;15.33;14.00;7.00
72031;PMS5003;49185;42.320;23.198;2023-01-26T09:27:12;15.00;13.33;5.00
72031;PMS5003;49185;42.320;23.198;2023-01-26T09:29:37;15.33;14.33;4.33
72031;PMS5003;49185;42.320;23.198;2023-01-26T09:32:03;17.00;15.33;6.00
72031;PMS5003;49185;42.320;23.198;2023-01-26T09:34:29;15.00;14.00;5.00
72031;PMS5003;49185;42.320;23.198;2023-01-26T09:36:54;8.67;7.67;3.00
72031;PMS5003;49185;42.320;23.198;2023-01-26T09:39:20;12.33;11.00;7.00
72031;PMS5003;49185;42.320;23.198;2023-01-26T09:44:23;11.75;10.00;3.75
72031;PMS5003;49185;42.320;23.198;2023-01-26T09:47:05;14.25;13.00;5.00
72031;PMS5003;49185;42.320;23.198;2023-01-26T09:55:01;14.50;14.00;5.00
72031;PMS5003;49185;42.320;23.198;2023-01-26T09:59:58;16.33;15.00;7.00
72031;PMS5003;49185;42.320;23.198;2023-01-26T10:05:07;17.25;15.00;6.25
72031;PMS5003;49185;42.320;23.198;2023-01-26T10:07:48;15.00;15.00;6.50
72031;PMS5003;49185;42.320;23.198;2023-01-26T10:10:18;16.00;15.00;5.00
72031;PMS5003;49185;42.320;23.198;2023-01-26T10:12:49;19.00;16.50;7.00
72031;PMS5003;49185;42.320;23.198;2023-01-26T10:15:27;18.50;18.00;7.00
72031;PMS5003;49185;42.320;23.198;2023-01-26T10:17:55;19.50;18.50;9.50
72031;PMS5003;49185;42.320;23.198;2023-01-26T10:20:30;17.00;15.00;7.00
72031;PMS5003;49185;42.320;23.198;2023-01-26T10:24:00;16.00;13.50;6.00
72031;PMS5003;49185;42.320;23.198;2023-01-26T10:26:06;16.00;14.00;5.50
72031;PMS5003;49185;42.320;23.198;2023-01-26T10:28:37;19.25;17.00;7.25
72031;PMS5003;49185;42.320;23.198;2023-01-26T10:31:07;19.50;17.50;7.50
72031;PMS5003;49185;42.320;23.198;2023-01-26T10:33:39;20.25;18.50;8.00
72031;PMS5003;49185;42.320;23.198;2023-01-26T10:36:30;24.00;21.25;11.50
72031;PMS5003;49185;42.320;23.198;2023-01-26T10:39:05;23.50;22.25;11.50
72031;PMS5003;49185;42.320;23.198;2023-01-26T10:41:36;19.00;19.00;7.00
72031;PMS5003;49185;42.320;23.198;2023-01-26T10:44:03;20.00;17.50;7.00
72031;PMS5003;49185;42.320;23.198;2023-01-26T10:46:45;17.00;16.00;6.00
72031;PMS5003;49185;42.320;23.198;2023-01-26T10:49:25;15.00;14.00;6.00
72031;PMS5003;49185;42.320;23.198;2023-01-26T10:54:40;15.75;15.00;6.25
72031;PMS5003;49185;42.320;23.198;2023-01-26T10:57:13;15.00;13.33;5.00
72031;PMS5003;49185;42.320;23.198;2023-01-26T11:00:28;14.50;13.25;6.25
72031;PMS5003;49185;42.320;23.198;2023-01-26T11:02:40;17.50;15.00;7.50
72031;PMS5003;49185;42.320;23.198;2023-01-26T11:05:18;15.00;12.00;5.00
72031;PMS5003;49185;42.320;23.198;2023-01-26T11:07:46;15.00;13.50;5.00
72031;PMS5003;49185;42.320;23.198;2023-01-26T11:12:46;19.75;19.00;9.50
72031;PMS5003;49185;42.320;23.198;2023-01-26T11:15:18;17.75;16.00;8.00
72031;PMS5003;49185;42.320;23.198;2023-01-26T11:17:55;16.00;15.50;7.50
72031;PMS5003;49185;42.320;23.198;2023-01-26T11:23:27;13.75;11.75;4.75
72031;PMS5003;49185;42.320;23.198;2023-01-26T11:34:54;14.50;13.75;6.00
72031;PMS5003;49185;42.320;23.198;2023-01-26T11:40:46;13.50;13.00;4.00
72031;PMS5003;49185;42.320;23.198;2023-01-26T11:59:38;14.50;14.00;5.00
72031;PMS5003;49185;42.320;23.198;2023-01-26T12:02:35;15.00;15.00;7.00
72031;PMS5003;49185;42.320;23.198;2023-01-26T12:07:56;15.00;15.00;6.50
72031;PMS5003;49185;42.320;23.198;2023-01-26T12:15:45;11.50;11.00;4.00
72031;PMS5003;49185;42.320;23.198;2023-01-26T12:18:21;13.00;11.50;5.00
72031;PMS5003;49185;42.320;23.198;2023-01-26T12:25:49;15.00;11.00;4.00
72031;PMS5003;49185;42.320;23.198;2023-01-26T12:33:49;13.00;10.00;5.00
72031;PMS5003;49185;42.320;23.198;2023-01-26T12:52:31;15.00;15.00;4.75
72031;PMS5003;49185;42.320;23.198;2023-01-26T12:55:09;15.75;15.00;6.00
72031;PMS5003;49185;42.320;23.198;2023-01-26T12:57:42;18.00;15.00;6.50
72031;PMS5003;49185;42.320;23.198;2023-01-26T13:00:31;16.00;15.00;7.00
72031;PMS5003;49185;42.320;23.198;2023-01-26T13:03:21;14.00;13.25;4.00
72031;PMS5003;49185;42.320;23.198;2023-01-26T13:06:02;10.00;10.00;3.00
72031;PMS5003;49185;42.320;23.198;2023-01-26T13:08:47;11.50;11.50;4.00
72031;PMS5003;49185;42.320;23.198;2023-01-26T13:11:15;14.50;14.00;5.50
72031;PMS5003;49185;42.320;23.198;2023-01-26T13:14:23;12.00;12.00;5.00
72031;PMS5003;49185;42.320;23.198;2023-01-26T13:16:59;13.25;11.50;3.00
72031;PMS5003;49185;42.320;23.198;2023-01-26T13:24:58;10.50;8.00;3.00
72031;PMS5003;49185;42.320;23.198;2023-01-26T13:30:02;7.00;6.33;3.00
72031;PMS5003;49185;42.320;23.198;2023-01-26T13:35:13;10.67;7.00;3.00
72031;PMS5003;49185;42.320;23.198;2023-01-26T13:40:21;11.25;9.25;3.00
72031;PMS5003;49185;42.320;23.198;2023-01-26T13:48:20;7.25;5.50;3.00
72031;PMS5003;49185;42.320;23.198;2023-01-26T13:50:58;7.75;7.00;3.75
72031;PMS5003;49185;42.320;23.198;2023-01-26T13:53:32;9.75;6.50;3.00
72031;PMS5003;49185;42.320;23.198;2023-01-26T13:56:16;13.00;10.00;4.00
72031;PMS5003;49185;42.320;23.198;2023-01-26T13:58:45;7.00;4.25;2.00
72031;PMS5003;49185;42.320;23.198;2023-01-26T14:01:11;7.00;4.00;3.00
72031;PMS5003;49185;42.320;23.198;2023-01-26T14:03:38;5.75;5.00;2.75
72031;PMS5003;49185;42.320;23.198;2023-01-26T14:06:04;4.67;4.67;3.00
72031;PMS5003;49185;42.320;23.198;2023-01-26T14:08:34;6.75;5.50;2.00
72031;PMS5003;49185;42.320;23.198;2023-01-26T14:11:02;6.75;5.00;3.00
72031;PMS5003;49185;42.320;23.198;2023-01-26T14:13:34;6.00;4.00;2.00
72031;PMS5003;49185;42.320;23.198;2023-01-26T14:16:02;4.50;4.00;1.00
72031;PMS5003;49185;42.320;23.198;2023-01-26T14:18:28;5.00;4.75;2.00
72031;PMS5003;49185;42.320;23.198;2023-01-26T14:21:04;5.75;5.00;2.00
72031;PMS5003;49185;42.320;23.198;2023-01-26T14:23:38;7.00;6.50;3.00
72031;PMS5003;49185;42.320;23.198;2023-01-26T14:26:21;5.00;5.00;2.00
72031;PMS5003;49185;42.320;23.198;2023-01-26T14:28:56;6.00;6.00;2.00
72031;PMS5003;49185;42.320;23.198;2023-01-26T14:31:24;7.00;7.00;2.00
72031;PMS5003;49185;42.320;23.198;2023-01-26T14:33:51;5.00;4.00;3.00
72031;PMS5003;49185;42.320;23.198;2023-01-26T14:36:19;7.25;6.00;3.00
72031;PMS5003;49185;42.320;23.198;2023-01-26T14:38:46;7.00;5.00;3.00
72031;PMS5003;49185;42.320;23.198;2023-01-26T14:41:30;7.00;7.00;4.00
72031;PMS5003;49185;42.320;23.198;2023-01-26T14:43:59;5.00;4.75;3.00
72031;PMS5003;49185;42.320;23.198;2023-01-26T14:49:03;7.00;7.00;3.75
72031;PMS5003;49185;42.320;23.198;2023-01-26T14:51:31;10.75;10.25;6.00
72031;PMS5003;49185;42.320;23.198;2023-01-26T14:54:00;10.00;7.25;3.00
72031;PMS5003;49185;42.320;23.198;2023-01-26T14:56:34;14.75;13.75;7.00
72031;PMS5003;49185;42.320;23.198;2023-01-26T14:59:02;15.75;15.00;6.25
72031;PMS5003;49185;42.320;23.198;2023-01-26T15:01:30;21.50;18.25;9.00
72031;PMS5003;49185;42.320;23.198;2023-01-26T15:04:01;24.75;19.75;11.00
72031;PMS5003;49185;42.320;23.198;2023-01-26T15:06:29;20.00;17.00;10.00
72031;PMS5003;49185;42.320;23.198;2023-01-26T15:11:49;10.50;7.00;3.00
72031;PMS5003;49185;42.320;23.198;2023-01-26T15:14:37;8.00;7.00;3.00
72031;PMS5003;49185;42.320;23.198;2023-01-26T15:17:03;20.00;17.75;8.50
72031;PMS5003;49185;42.320;23.198;2023-01-26T15:19:31;24.50;21.50;10.25
72031;PMS5003;49185;42.320;23.198;2023-01-26T15:22:02;22.25;19.75;9.50
72031;PMS5003;49185;42.320;23.198;2023-01-26T15:24:28;15.67;14.00;5.00
72031;PMS5003;49185;42.320;23.198;2023-01-26T15:27:02;14.00;12.00;5.33
72031;PMS5003;49185;42.320;23.198;2023-01-26T15:29:32;14.50;12.00;4.00
72031;PMS5003;49185;42.320;23.198;2023-01-26T15:31:58;11.00;8.25;3.00
72031;PMS5003;49185;42.320;23.198;2023-01-26T15:34:28;12.00;7.00;3.00
72031;PMS5003;49185;42.320;23.198;2023-01-26T15:36:56;7.00;5.00;2.00
72031;PMS5003;49185;42.320;23.198;2023-01-26T15:39:22;6.00;5.00;2.00
72031;PMS5003;49185;42.320;23.198;2023-01-26T15:42:47;3.00;3.00;2.00
72031;PMS5003;49185;42.320;23.198;2023-01-26T15:44:46;4.00;3.25;1.00
72031;PMS5003;49185;42.320;23.198;2023-01-26T15:47:11;3.33;3.33;1.00
72031;PMS5003;49185;42.320;23.198;2023-01-26T15:49:37;5.00;5.00;1.00
72031;PMS5003;49185;42.320;23.198;2023-01-26T15:52:08;6.00;5.00;1.00
72031;PMS5003;49185;42.320;23.198;2023-01-26T15:54:37;5.00;4.50;1.00
72031;PMS5003;49185;42.320;23.198;2023-01-26T15:57:02;4.00;3.33;2.00
72031;PMS5003;49185;42.320;23.198;2023-01-26T15:59:28;3.00;3.00;2.00
72031;PMS5003;49185;42.320;23.198;2023-01-26T16:01:54;5.00;5.00;1.00
72031;PMS5003;49185;42.320;23.198;2023-01-26T16:04:20;10.75;10.50;5.50
72031;PMS5003;49185;42.320;23.198;2023-01-26T16:06:45;17.67;17.33;7.00
72031;PMS5003;49185;42.320;23.198;2023-01-26T16:09:10;14.00;12.00;3.00
72031;PMS5003;49185;42.320;23.198;2023-01-26T16:11:37;16.00;14.00;6.67